Time;durP1;ratioP1;P1;durP2;ratioP2;P2;SDS_P1;SDS_P2;PMS_P1;PMS_P2;Temp;Humidity;BMP_temperature;BMP_pressure;BME280_temperature;BME280_humidity;BME280_pressure;Samples;Min_cycle;Max_cycle;Signal;HPM_P1;HPM_P2
2022/04/30 00:01:01;;;;;;;0.20;0.20;;;;;;;14.80;41.83;100517.00;6221223;23;20070;-69
2022/04/30 00:03:28;;;;;;;0.20;0.20;;;;;;;14.82;42.31;100523.03;6220951;23;20084;-70
2022/04/30 00:05:57;;;;;;;0.20;0.20;;;;;;;14.83;41.84;100516.25;6220561;23;20099;-69
2022/04/30 00:08:26;;;;;;;0.10;0.10;;;;;;;14.88;41.88;100519.50;6220407;23;20444;-70
2022/04/30 00:10:53;;;;;;;0.20;0.20;;;;;;;14.71;42.68;100519.31;6220803;23;20015;-69
2022/04/30 00:13:25;;;;;;;0.20;0.20;;;;;;;14.66;42.94;100515.66;6246925;23;20043;-70
2022/04/30 00:15:51;;;;;;;0.20;0.20;;;;;;;14.76;42.20;100513.38;6220947;23;20396;-70
2022/04/30 00:18:17;;;;;;;0.20;0.20;;;;;;;14.79;41.63;100518.19;6220395;23;20036;-69
2022/04/30 00:20:48;;;;;;;0.20;0.20;;;;;;;14.76;41.87;100511.38;6220944;23;20008;-70
2022/04/30 00:23:20;;;;;;;0.10;0.10;;;;;;;14.79;41.60;100512.59;6220676;23;20000;-70
2022/04/30 00:25:56;;;;;;;0.20;0.20;;;;;;;14.64;41.35;100508.81;6220307;23;20004;-69
2022/04/30 00:28:25;;;;;;;0.20;0.20;;;;;;;14.70;41.28;100512.06;6220549;23;20004;-70
2022/04/30 00:30:51;;;;;;;0.20;0.20;;;;;;;14.73;41.25;100506.53;6219636;23;20019;-69
2022/04/30 00:33:17;;;;;;;0.20;0.20;;;;;;;14.70;41.51;100506.47;6220531;23;20020;-70
2022/04/30 00:35:45;;;;;;;0.20;0.20;;;;;;;14.68;40.98;100502.06;6220153;23;20397;-69
2022/04/30 00:38:11;;;;;;;0.20;0.20;;;;;;;14.66;41.43;100498.06;6220555;23;20325;-69
2022/04/30 00:40:42;;;;;;;0.20;0.20;;;;;;;14.67;41.26;100508.88;6220150;23;20006;-70
2022/04/30 00:43:08;;;;;;;0.10;0.10;;;;;;;14.72;40.85;100501.31;6220178;23;20000;-69
2022/04/30 00:45:36;;;;;;;0.20;0.20;;;;;;;14.68;41.18;100496.47;6220155;23;20055;-69
2022/04/30 00:48:02;;;;;;;0.20;0.20;;;;;;;14.50;41.28;100495.47;6220076;23;20000;-69
2022/04/30 00:50:36;;;;;;;0.20;0.20;;;;;;;14.56;41.57;100499.53;6220393;23;20464;-69
2022/04/30 00:53:05;;;;;;;0.10;0.10;;;;;;;14.53;41.63;100500.28;6215875;23;20011;-69
2022/04/30 00:55:37;;;;;;;0.20;0.20;;;;;;;14.51;41.21;100485.88;6219918;23;20004;-69
2022/04/30 00:58:05;;;;;;;0.20;0.20;;;;;;;14.47;41.69;100484.19;6219976;23;20011;-70
2022/04/30 01:00:33;;;;;;;0.20;0.20;;;;;;;14.43;42.49;100489.72;6220664;23;20004;-70
2022/04/30 01:03:02;;;;;;;0.20;0.20;;;;;;;14.43;42.12;100484.13;6219999;23;20043;-69
2022/04/30 01:05:30;;;;;;;0.20;0.20;;;;;;;14.53;42.27;100482.69;6219971;23;20004;-69
2022/04/30 01:07:59;;;;;;;0.17;0.17;;;;;;;14.35;42.74;100479.66;6219968;23;20008;-70
2022/04/30 01:10:28;;;;;;;0.20;0.20;;;;;;;14.31;43.66;100462.00;6219775;23;20004;-69
2022/04/30 01:12:54;;;;;;;0.10;0.10;;;;;;;14.15;43.62;100462.22;6220163;23;20015;-69
2022/04/30 01:15:20;;;;;;;0.20;0.20;;;;;;;14.15;43.74;100457.41;6219689;23;20012;-70
2022/04/30 01:17:46;;;;;;;0.20;0.20;;;;;;;14.24;43.91;100464.72;6220500;23;20015;-70
2022/04/30 01:20:12;;;;;;;0.20;0.20;;;;;;;14.09;44.80;100458.13;6220102;23;20332;-70
2022/04/30 01:23:03;;;;;;;0.10;0.10;;;;;;;13.97;44.74;100462.00;6219840;23;20058;-69
2022/04/30 01:25:31;;;;;;;0.20;0.20;;;;;;;13.84;44.61;100455.00;6219753;23;20039;-69
2022/04/30 01:27:59;;;;;;;0.20;0.20;;;;;;;13.91;44.31;100446.72;6219961;23;20004;-69
2022/04/30 01:30:28;;;;;;;0.20;0.20;;;;;;;13.76;44.65;100442.13;6219779;23;20460;-69
2022/04/30 01:38:26;;;;;;;0.20;0.20;;;;;;;13.80;44.81;100440.97;6247218;23;20069;-67
2022/04/30 01:40:54;;;;;;;0.20;0.20;;;;;;;13.69;45.57;100428.00;6219858;23;20008;-67
2022/04/30 01:43:22;;;;;;;0.20;0.20;;;;;;;13.72;45.38;100430.88;6219857;23;20012;-67
2022/04/30 01:45:49;;;;;;;0.10;0.10;;;;;;;13.56;46.38;100425.44;6246628;23;20004;-67
2022/04/30 01:48:15;;;;;;;0.20;0.20;;;;;;;13.63;45.72;100421.94;6220164;23;20016;-68
2022/04/30 01:50:44;;;;;;;0.20;0.20;;;;;;;13.78;45.51;100431.34;6219746;23;20008;-69
2022/04/30 01:53:10;;;;;;;0.20;0.20;;;;;;;13.62;45.51;100417.53;6220158;23;20417;-67
2022/04/30 01:55:39;;;;;;;0.20;0.20;;;;;;;13.53;46.10;100420.63;6219671;23;20062;-67
2022/04/30 01:58:05;;;;;;;0.20;0.20;;;;;;;13.51;46.02;100419.38;6220210;23;20015;-67
2022/04/30 02:00:32;;;;;;;0.20;0.20;;;;;;;13.47;46.48;100413.72;6220335;23;20103;-67
2022/04/30 02:03:06;;;;;;;0.20;0.20;;;;;;;13.48;46.53;100412.56;6220921;23;20012;-68
2022/04/30 02:05:35;;;;;;;0.20;0.20;;;;;;;13.54;47.37;100410.25;6220561;23;20063;-68
2022/04/30 02:08:08;;;;;;;0.20;0.20;;;;;;;13.69;45.90;100414.03;6219906;23;20012;-68
2022/04/30 02:10:36;;;;;;;0.20;0.20;;;;;;;13.72;46.03;100404.91;6220322;23;20333;-67
2022/04/30 02:13:06;;;;;;;0.20;0.20;;;;;;;13.65;45.37;100413.19;6219639;23;20091;-67
2022/04/30 02:15:34;;;;;;;0.20;0.20;;;;;;;13.57;45.14;100410.28;6220268;23;20057;-67
2022/04/30 02:18:03;;;;;;;0.20;0.20;;;;;;;13.50;45.22;100404.59;6219641;23;20016;-67
2022/04/30 02:20:31;;;;;;;0.20;0.20;;;;;;;13.49;46.33;100407.78;6220496;23;20083;-67
2022/04/30 02:23:03;;;;;;;0.20;0.20;;;;;;;13.53;45.82;100395.47;6222066;23;20082;-67
2022/04/30 02:25:31;;;;;;;0.20;0.20;;;;;;;13.63;44.56;100396.78;6221937;23;20337;-67
2022/04/30 02:27:59;;;;;;;0.20;0.20;;;;;;;13.58;44.46;100388.72;6221672;23;20079;-67
2022/04/30 02:30:29;;;;;;;0.20;0.20;;;;;;;13.59;44.87;100399.56;6221146;23;20106;-67
2022/04/30 02:32:58;;;;;;;0.20;0.20;;;;;;;13.57;45.85;100404.69;6248813;23;20008;-67
2022/04/30 02:35:26;;;;;;;0.20;0.20;;;;;;;13.57;44.92;100403.88;6221486;23;20495;-68
2022/04/30 02:37:54;;;;;;;0.20;0.20;;;;;;;13.57;45.12;100404.69;6221936;23;20066;-67
2022/04/30 02:40:26;;;;;;;0.20;0.20;;;;;;;13.55;44.81;100409.88;6221468;23;20020;-67
2022/04/30 02:43:02;;;;;;;0.20;0.20;;;;;;;13.69;44.34;100406.47;6222551;23;20000;-67
2022/04/30 02:45:30;;;;;;;0.20;0.20;;;;;;;13.62;44.20;100401.56;6221498;23;20087;-68
2022/04/30 02:47:56;;;;;;;0.20;0.20;;;;;;;13.58;43.83;100403.53;6221855;23;20008;-67
2022/04/30 02:50:28;;;;;;;0.20;0.20;;;;;;;13.55;43.94;100403.47;6221601;23;20019;-67
2022/04/30 02:52:55;;;;;;;0.20;0.20;;;;;;;13.49;43.36;100393.81;6221844;23;20008;-68
2022/04/30 02:55:22;;;;;;;0.20;0.20;;;;;;;13.56;41.93;100402.28;6221785;23;20441;-67
2022/04/30 03:00:39;;;;;;;0.20;0.20;;;;;;;13.63;43.36;100392.03;6226316;23;20468;-68
2022/04/30 03:03:12;;;;;;;0.20;0.20;;;;;;;13.61;42.87;100388.78;6223163;23;20065;-68
2022/04/30 03:05:44;;;;;;;0.20;0.20;;;;;;;13.55;42.07;100395.88;6223248;23;20031;-68
2022/04/30 03:08:12;;;;;;;0.20;0.20;;;;;;;13.59;42.58;100398.75;6248961;23;20011;-70
2022/04/30 03:10:42;;;;;;;0.20;0.20;;;;;;;13.58;42.56;100388.72;6223575;23;20321;-69
2022/04/30 03:13:08;;;;;;;0.20;0.20;;;;;;;13.51;42.63;100389.44;6223598;23;20007;-68
2022/04/30 03:15:34;;;;;;;0.15;0.15;;;;;;;13.55;42.79;100390.28;6223851;23;20452;-69
2022/04/30 03:23:33;;;;;;;0.20;0.20;;;;;;;13.62;42.30;100390.38;6248586;23;20486;-67
2022/04/30 03:26:03;;;;;;;0.20;0.20;;;;;;;13.81;41.14;100394.25;6221252;23;20012;-67
2022/04/30 03:28:32;;;;;;;0.20;0.20;;;;;;;13.81;40.90;100380.25;6247968;23;20111;-67
2022/04/30 03:31:04;;;;;;;0.20;0.20;;;;;;;13.81;41.54;100383.06;6220497;23;20016;-67
2022/04/30 03:33:33;;;;;;;0.20;0.20;;;;;;;13.87;41.28;100389.91;6220763;23;20000;-68
2022/04/30 03:35:59;;;;;;;0.20;0.20;;;;;;;13.76;41.68;100383.38;6221907;23;20004;-68
2022/04/30 03:38:30;;;;;;;0.20;0.20;;;;;;;13.72;41.61;100383.34;6221265;23;20341;-68
2022/04/30 03:41:00;;;;;;;0.20;0.20;;;;;;;13.63;41.75;100382.81;6222033;23;20010;-68
2022/04/30 03:43:26;;;;;;;0.20;0.20;;;;;;;13.56;41.91;100380.72;6200686;23;20020;-70
2022/04/30 03:45:51;;;;;;;0.20;0.20;;;;;;;13.59;41.72;100379.97;6201232;23;20028;-68
2022/04/30 03:48:19;;;;;;;0.20;0.20;;;;;;;13.41;42.16;100378.91;6225491;23;20004;-68
2022/04/30 03:51:05;;;;;;;0.20;0.20;;;;;;;13.41;41.85;100390.09;6248292;23;20012;-68
2022/04/30 03:53:31;;;;;;;0.20;0.20;;;;;;;13.56;41.67;100391.91;6223819;23;20429;-68
2022/04/30 03:56:02;;;;;;;0.20;0.20;;;;;;;13.58;40.84;100394.31;6223673;23;20004;-69
2022/04/30 03:58:28;;;;;;;0.20;0.20;;;;;;;13.48;41.46;100395.81;6224501;23;20023;-68
2022/04/30 04:00:54;;;;;;;0.20;0.20;;;;;;;13.44;41.46;100394.94;6224245;23;20035;-68
2022/04/30 04:03:21;;;;;;;0.20;0.20;;;;;;;13.38;41.97;100395.66;6224333;23;20074;-68
2022/04/30 04:05:50;;;;;;;0.20;0.20;;;;;;;13.45;41.26;100388.16;6224260;23;20425;-70
2022/04/30 04:08:22;;;;;;;0.20;0.20;;;;;;;13.46;41.44;100395.34;6223870;23;20019;-70
2022/04/30 04:10:48;;;;;;;0.20;0.20;;;;;;;13.46;41.67;100409.31;6223333;23;20012;-69
2022/04/30 04:18:55;;;;;;;0.20;0.20;;;;;;;13.57;40.82;100404.69;6248442;23;20448;-68
2022/04/30 04:21:23;;;;;;;0.20;0.20;;;;;;;13.68;40.16;100388.06;6222200;23;20005;-68
2022/04/30 04:26:35;;;;;;;;;;;;;;;13.87;39.91;100398.31;6250066;23;20070;-69
2022/04/30 04:29:01;;;;;;;0.20;0.20;;;;;;;13.84;40.00;100391.47;6222327;23;19903;-70
2022/04/30 04:31:30;;;;;;;0.20;0.20;;;;;;;13.82;39.94;100393.06;6222654;23;20095;-68
2022/04/30 04:33:59;;;;;;;0.10;0.10;;;;;;;13.88;39.52;100400.72;6222525;23;20417;-69
2022/04/30 04:36:27;;;;;;;0.20;0.20;;;;;;;14.08;39.58;100397.78;6221165;23;20008;-68
2022/04/30 04:38:56;;;;;;;0.20;0.20;;;;;;;14.20;39.08;100396.72;6220462;23;20000;-68
2022/04/30 04:41:27;;;;;;;0.20;0.20;;;;;;;14.40;38.75;100412.13;6221149;23;20004;-72
2022/04/30 04:43:53;;;;;;;0.20;0.20;;;;;;;14.46;38.60;100396.59;6221886;23;20318;-67
2022/04/30 04:46:19;;;;;;;0.20;0.20;;;;;;;14.50;38.97;100402.28;6221798;23;20004;-68
2022/04/30 04:48:51;;;;;;;0.20;0.20;;;;;;;14.50;39.45;100405.06;6221826;23;20318;-68
2022/04/30 04:51:16;;;;;;;0.20;0.20;;;;;;;14.56;39.93;100401.53;6220374;23;20075;-68
2022/04/30 04:53:44;;;;;;;0.20;0.20;;;;;;;14.53;39.01;100382.69;6220507;23;20004;-68
2022/04/30 04:56:12;;;;;;;0.10;0.10;;;;;;;14.71;39.57;100404.50;6219817;23;20011;-68
2022/04/30 04:58:40;;;;;;;0.20;0.20;;;;;;;14.80;38.79;100402.16;6219960;23;20079;-68
2022/04/30 05:01:05;;;;;;;0.20;0.20;;;;;;;15.03;38.58;100410.38;6219884;23;20004;-68
2022/04/30 05:03:34;;;;;;;0.20;0.20;;;;;;;15.14;38.53;100414.06;6219802;23;20075;-68
2022/04/30 05:06:00;;;;;;;0.20;0.20;;;;;;;15.34;38.29;100403.38;6219477;23;20083;-68
2022/04/30 05:08:25;;;;;;;0.20;0.20;;;;;;;15.38;38.19;100399.41;6220196;23;20055;-68
2022/04/30 05:10:51;;;;;;;0.20;0.20;;;;;;;15.59;37.36;100415.56;6220128;23;20328;-68
2022/04/30 05:13:19;;;;;;;0.20;0.20;;;;;;;15.84;37.26;100404.53;6219777;23;20015;-70
2022/04/30 05:15:45;;;;;;;0.20;0.20;;;;;;;15.89;36.81;100400.56;6219748;23;20008;-70
2022/04/30 05:18:10;;;;;;;0.20;0.20;;;;;;;16.08;37.21;100405.03;6220429;23;20075;-68
2022/04/30 05:20:36;;;;;;;0.20;0.20;;;;;;;16.22;36.81;100411.50;6219745;23;20340;-68
2022/04/30 05:23:02;;;;;;;0.20;0.20;;;;;;;16.27;36.40;100403.91;6220306;23;20019;-68
2022/04/30 05:25:30;;;;;;;0.20;0.20;;;;;;;16.36;35.96;100407.16;6247158;23;20028;-68
2022/04/30 05:27:58;;;;;;;0.20;0.20;;;;;;;16.46;36.55;100412.00;6219703;23;20400;-68
2022/04/30 05:30:24;;;;;;;0.20;0.20;;;;;;;16.61;36.15;100410.78;6219350;23;20122;-68
2022/04/30 05:32:52;;;;;;;0.15;0.15;;;;;;;16.70;35.45;100411.22;6194927;23;20016;-69
2022/04/30 05:35:21;;;;;;;0.20;0.20;;;;;;;16.78;35.71;100412.06;6219826;23;20325;-69
2022/04/30 05:37:49;;;;;;;0.10;0.10;;;;;;;17.16;35.44;100410.50;6219631;23;20539;-69
2022/04/30 05:40:36;;;;;;;0.10;0.10;;;;;;;17.57;34.89;100407.19;6220002;23;20008;-70
2022/04/30 05:43:06;;;;;;;0.10;0.10;;;;;;;17.79;34.23;100414.44;6220124;23;20078;-68
2022/04/30 05:45:34;;;;;;;0.20;0.20;;;;;;;17.98;33.99;100398.28;6219886;23;20126;-68
2022/04/30 05:48:00;;;;;;;0.20;0.20;;;;;;;18.03;34.13;100407.09;6219542;23;20046;-68
2022/04/30 05:50:28;;;;;;;0.20;0.20;;;;;;;17.87;34.47;100409.56;6219424;23;20008;-68
2022/04/30 05:52:54;;;;;;;0.20;0.20;;;;;;;17.75;34.41;100415.66;6219378;23;20083;-68
2022/04/30 05:55:20;;;;;;;0.20;0.20;;;;;;;17.88;34.03;100418.81;6219563;23;20091;-68
2022/04/30 05:57:48;;;;;;;0.20;0.20;;;;;;;18.93;32.57;100404.59;6219218;23;20083;-69
2022/04/30 06:00:15;;;;;;;0.10;0.10;;;;;;;20.01;30.98;100412.84;6220388;23;20359;-68
2022/04/30 06:02:43;;;;;;;0.20;0.20;;;;;;;20.94;29.10;100412.38;6219215;23;20008;-69
2022/04/30 06:05:09;;;;;;;0.20;0.20;;;;;;;21.99;27.18;100418.59;6219339;23;20005;-69
2022/04/30 06:07:37;;;;;;;0.20;0.20;;;;;;;22.48;25.84;100413.94;6219316;23;20014;-68
2022/04/30 06:10:06;;;;;;;0.20;0.20;;;;;;;22.99;25.15;100405.88;6219334;23;20012;-69
2022/04/30 06:12:33;;;;;;;0.10;0.10;;;;;;;23.69;24.83;100406.53;6219362;23;20018;-69
2022/04/30 06:15:03;;;;;;;0.20;0.20;;;;;;;24.03;24.16;100421.00;6245993;23;20000;-69
2022/04/30 06:17:32;;;;;;;0.20;0.20;;;;;;;24.09;23.14;100423.31;6214851;23;20087;-69
2022/04/30 06:19:58;;;;;;;0.10;0.10;;;;;;;23.70;22.75;100419.50;6219208;23;20012;-69
2022/04/30 06:22:26;;;;;;;0.10;0.10;;;;;;;23.95;23.21;100416.75;6219167;23;20040;-69
2022/04/30 06:24:54;;;;;;;0.13;0.13;;;;;;;23.88;22.40;100425.50;6219536;23;20008;-69
2022/04/30 06:27:23;;;;;;;0.10;0.10;;;;;;;23.15;23.37;100418.47;6219540;23;20306;-70
2022/04/30 06:29:51;;;;;;;0.10;0.10;;;;;;;22.95;23.98;100422.19;6214113;23;20027;-70
2022/04/30 06:32:17;;;;;;;0.10;0.10;;;;;;;23.12;23.99;100422.22;6215981;23;20001;-70
2022/04/30 06:34:45;;;;;;;0.10;0.10;;;;;;;23.08;23.78;100424.34;6215918;23;20007;-70
2022/04/30 06:37:13;;;;;;;0.10;0.10;;;;;;;22.30;24.64;100427.69;6214213;23;20013;-70
2022/04/30 06:39:42;;;;;;;0.10;0.10;;;;;;;22.54;25.15;100434.06;6215861;23;20471;-70
2022/04/30 06:42:11;;;;;;;0.10;0.10;;;;;;;23.13;24.28;100423.81;6214120;23;20031;-69
2022/04/30 06:44:37;;;;;;;0.10;0.10;;;;;;;22.98;24.77;100424.16;6214034;23;20001;-70
2022/04/30 06:47:08;;;;;;;0.10;0.10;;;;;;;23.25;24.02;100423.09;6214373;23;20012;-70
2022/04/30 06:49:34;;;;;;;0.15;0.15;;;;;;;22.93;24.25;100427.50;6216166;23;20001;-70
2022/04/30 06:52:03;;;;;;;0.10;0.10;;;;;;;22.94;24.68;100428.31;6214126;23;20016;-70
2022/04/30 06:57:21;;;;;;;0.10;0.10;;;;;;;21.69;26.23;100428.09;6215950;23;20047;-70
2022/04/30 06:59:51;;;;;;;0.10;0.10;;;;;;;21.56;26.43;100430.75;6214418;23;20469;-71
2022/04/30 07:02:23;;;;;;;0.10;0.10;;;;;;;21.94;26.21;100425.59;6214154;23;20092;-70
2022/04/30 07:04:52;;;;;;;0.15;0.15;;;;;;;22.85;25.12;100426.06;6215754;23;20428;-70
2022/04/30 07:07:18;;;;;;;0.10;0.10;;;;;;;22.64;25.42;100420.91;6215409;23;20005;-70
2022/04/30 07:09:47;;;;;;;0.10;0.10;;;;;;;22.55;25.58;100423.53;6217578;23;20119;-70
2022/04/30 07:12:14;;;;;;;0.10;0.10;;;;;;;22.92;25.63;100423.09;6215995;23;20009;-70
2022/04/30 07:14:41;;;;;;;0.20;0.20;;;;;;;22.91;25.79;100430.00;6216543;23;20345;-70
2022/04/30 07:17:12;;;;;;;0.10;0.10;;;;;;;22.48;25.93;100430.97;6216273;23;20016;-71
2022/04/30 07:19:43;;;;;;;0.20;0.20;;;;;;;22.99;25.46;100427.78;6216615;23;20079;-70
2022/04/30 07:22:15;;;;;;;0.10;0.10;;;;;;;23.42;24.67;100421.03;6215828;23;20004;-70
2022/04/30 07:24:43;;;;;;;0.10;0.10;;;;;;;23.26;24.93;100424.69;6215680;23;20015;-70
2022/04/30 07:27:15;;;;;;;0.10;0.10;;;;;;;23.66;24.34;100424.50;6215401;23;20005;-70
2022/04/30 07:29:48;;;;;;;0.10;0.10;;;;;;;23.70;23.34;100426.00;6215973;23;20024;-71
2022/04/30 07:32:19;;;;;;;0.20;0.20;;;;;;;23.87;24.06;100428.78;6215675;23;20004;-71
2022/04/30 07:34:45;;;;;;;0.10;0.10;;;;;;;23.93;23.19;100438.38;6215524;23;20008;-71
2022/04/30 07:37:11;;;;;;;0.10;0.10;;;;;;;24.29;23.28;100432.47;6216196;23;20078;-70
2022/04/30 07:39:39;;;;;;;0.10;0.10;;;;;;;24.62;22.98;100433.09;6216369;23;20317;-70
2022/04/30 07:42:10;;;;;;;0.10;0.10;;;;;;;25.18;21.94;100441.09;6215773;23;20075;-70
2022/04/30 07:44:36;;;;;;;0.10;0.10;;;;;;;25.18;22.23;100434.59;6215642;23;20414;-70
2022/04/30 07:47:02;;;;;;;0.10;0.10;;;;;;;25.55;21.74;100433.72;6215229;23;20013;-70
2022/04/30 07:49:33;;;;;;;0.10;0.10;;;;;;;24.88;22.92;100439.59;6215480;23;20016;-72
2022/04/30 07:52:03;;;;;;;0.10;0.10;;;;;;;25.21;21.94;100439.38;6215794;23;20329;-70
2022/04/30 07:54:31;;;;;;;0.10;0.10;;;;;;;25.20;22.01;100434.94;6215332;23;20008;-70
2022/04/30 07:56:59;;;;;;;0.10;0.10;;;;;;;25.71;21.72;100437.66;6215467;23;20008;-70
2022/04/30 07:59:34;;;;;;;0.10;0.10;;;;;;;26.26;20.76;100443.81;6216562;23;20027;-70
2022/04/30 08:02:04;;;;;;;0.10;0.10;;;;;;;27.03;20.68;100438.41;6215572;23;20012;-70
2022/04/30 08:04:33;;;;;;;0.20;0.20;;;;;;;27.33;19.97;100440.44;6216933;23;20012;-70
2022/04/30 08:07:01;;;;;;;0.10;0.10;;;;;;;27.58;19.58;100445.06;6215298;23;20070;-70
2022/04/30 08:09:29;;;;;;;0.10;0.10;;;;;;;27.80;19.90;100435.56;6215529;23;20008;-70
2022/04/30 08:11:55;;;;;;;0.10;0.10;;;;;;;27.40;20.32;100447.88;6215235;23;20016;-70
2022/04/30 08:14:20;;;;;;;0.10;0.10;;;;;;;26.89;19.98;100448.31;6215227;23;20012;-70
2022/04/30 08:16:52;;;;;;;0.10;0.10;;;;;;;28.01;19.38;100446.06;6214689;23;20036;-69
2022/04/30 08:19:23;;;;;;;0.10;0.10;;;;;;;28.38;18.96;100440.31;6215314;23;20008;-69
2022/04/30 08:21:52;;;;;;;0.10;0.10;;;;;;;27.83;19.72;100438.28;6215093;23;20008;-69
2022/04/30 08:24:17;;;;;;;0.10;0.10;;;;;;;27.86;19.62;100437.34;6215382;23;20090;-70
2022/04/30 08:26:46;;;;;;;0.10;0.10;;;;;;;27.75;19.43;100442.75;6215222;23;20009;-70
2022/04/30 08:29:12;;;;;;;0.10;0.10;;;;;;;27.20;19.84;100441.81;6216851;23;20426;-69
2022/04/30 08:31:38;;;;;;;0.10;0.10;;;;;;;27.35;19.56;100443.59;6219824;23;20054;-70
2022/04/30 08:34:03;;;;;;;0.10;0.10;;;;;;;27.59;19.79;100443.81;6220139;23;20031;-69
2022/04/30 08:36:29;;;;;;;0.10;0.10;;;;;;;27.92;19.41;100434.63;6220489;23;20000;-69
2022/04/30 08:38:55;;;;;;;0.10;0.10;;;;;;;27.43;19.20;100444.06;6219684;23;20341;-70
2022/04/30 08:41:23;;;;;;;0.10;0.10;;;;;;;26.98;20.18;100445.50;6220048;23;20380;-70
2022/04/30 08:43:54;;;;;;;0.10;0.10;;;;;;;26.36;20.19;100437.72;6220301;23;20341;-70
2022/04/30 08:46:21;;;;;;;0.10;0.10;;;;;;;26.31;20.68;100434.66;6220159;23;20539;-70
2022/04/30 08:48:48;;;;;;;0.10;0.10;;;;;;;25.86;21.26;100438.78;6219638;23;20008;-70
2022/04/30 08:51:16;;;;;;;0.10;0.10;;;;;;;25.55;21.81;100430.88;6219761;23;20008;-70
2022/04/30 08:53:41;;;;;;;0.10;0.10;;;;;;;25.51;21.62;100430.19;6247056;23;20000;-70
2022/04/30 08:56:11;;;;;;;0.10;0.10;;;;;;;25.16;21.55;100442.81;6246366;23;20011;-70
2022/04/30 08:58:41;;;;;;;0.10;0.10;;;;;;;25.51;21.45;100435.88;6220063;23;20305;-70
2022/04/30 09:01:09;;;;;;;0.10;0.10;;;;;;;25.72;20.76;100433.53;6219774;23;20091;-70
2022/04/30 09:03:37;;;;;;;0.10;0.10;;;;;;;26.06;20.75;100430.72;6220292;23;20313;-71
2022/04/30 09:06:07;;;;;;;0.10;0.10;;;;;;;25.65;21.02;100433.81;6194755;23;20432;-70
2022/04/30 09:08:35;;;;;;;0.17;0.17;;;;;;;25.12;21.48;100430.72;6246522;23;20105;-70
2022/04/30 09:11:09;;;;;;;0.10;0.10;;;;;;;25.88;21.14;100413.44;6246212;23;20031;-70
2022/04/30 09:13:46;;;;;;;0.10;0.10;;;;;;;25.62;21.13;100415.59;6219542;23;20111;-71
2022/04/30 09:16:23;;;;;;;0.10;0.10;;;;;;;25.46;21.53;100419.41;6220241;23;20144;-70
2022/04/30 09:18:52;;;;;;;0.10;0.10;;;;;;;26.11;20.84;100417.91;6219781;23;20447;-71
2022/04/30 09:21:18;;;;;;;0.10;0.10;;;;;;;27.05;20.30;100410.94;6220444;23;20291;-71
2022/04/30 09:23:45;;;;;;;0.10;0.10;;;;;;;27.54;18.92;100406.47;6219512;23;20039;-70
2022/04/30 09:26:13;;;;;;;0.10;0.10;;;;;;;28.41;18.28;100413.63;6246098;23;20018;-70
2022/04/30 09:28:45;;;;;;;0.10;0.10;;;;;;;28.71;17.78;100415.44;6220365;23;20019;-70
2022/04/30 09:31:20;;;;;;;0.10;0.10;;;;;;;28.72;17.96;100410.50;6218819;23;20468;-70
2022/04/30 09:33:57;;;;;;;0.10;0.10;;;;;;;29.31;17.36;100404.34;6219561;23;20087;-70
2022/04/30 09:39:13;;;;;;;0.10;0.10;;;;;;;27.54;18.00;100398.72;6246413;23;20066;-70
2022/04/30 09:41:38;;;;;;;0.10;0.10;;;;;;;27.34;18.42;100396.31;6219790;23;20004;-70
2022/04/30 09:44:09;;;;;;;0.10;0.10;;;;;;;28.23;18.08;100393.59;6245783;23;20008;-70
2022/04/30 09:46:40;;;;;;;0.10;0.10;;;;;;;28.78;18.59;100387.72;6219683;23;20007;-70
2022/04/30 09:54:44;;;;;;;0.10;0.10;;;;;;;26.89;19.39;100394.88;6245887;23;20456;-69
2022/04/30 09:57:09;;;;;;;0.10;0.10;;;;;;;26.22;19.70;100386.13;6218830;23;20000;-69
2022/04/30 09:59:43;;;;;;;0.10;0.10;;;;;;;26.56;19.56;100383.16;6218749;23;20000;-70
2022/04/30 10:02:13;;;;;;;0.10;0.10;;;;;;;27.41;19.29;100378.06;6245795;23;20000;-70
2022/04/30 10:04:42;;;;;;;0.10;0.10;;;;;;;27.57;19.16;100369.16;6246057;23;20098;-71
2022/04/30 10:07:10;;;;;;;0.10;0.10;;;;;;;28.39;18.45;100364.66;6219286;23;20005;-70
2022/04/30 10:09:42;;;;;;;0.10;0.10;;;;;;;28.71;17.80;100371.69;6219178;23;20015;-71
2022/04/30 10:12:40;;;;;;;0.10;0.10;;;;;;;28.18;17.55;100361.53;6219619;23;20110;-70
2022/04/30 10:15:30;;;;;;;0.10;0.10;;;;;;;27.85;18.31;100360.59;6150428;23;20015;-70
2022/04/30 10:18:00;;;;;;;0.10;0.10;;;;;;;27.25;19.36;100358.34;6219007;23;20004;-70
2022/04/30 10:20:35;;;;;;;0.10;0.10;;;;;;;27.75;19.05;100351.28;6219314;23;20004;-70
2022/04/30 10:23:05;;;;;;;0.10;0.10;;;;;;;28.08;18.23;100362.03;6218980;23;20019;-67
2022/04/30 10:25:46;;;;;;;0.10;0.10;;;;;;;28.75;18.36;100365.78;6219852;23;20070;-70
2022/04/30 10:28:22;;;;;;;0.10;0.10;;;;;;;28.91;18.13;100359.66;6219706;23;20011;-70
2022/04/30 10:31:11;;;;;;;0.10;0.10;;;;;;;29.27;17.89;100340.69;6213992;23;20091;-69
2022/04/30 10:33:49;;;;;;;0.10;0.10;;;;;;;29.02;18.14;100348.47;6214628;23;20008;-70
2022/04/30 10:36:18;;;;;;;0.10;0.10;;;;;;;29.21;17.53;100352.81;6214061;23;20015;-70
2022/04/30 10:39:02;;;;;;;0.10;0.10;;;;;;;29.36;17.07;100355.75;6215926;23;20009;-70
2022/04/30 10:41:30;;;;;;;0.10;0.10;;;;;;;29.41;17.62;100357.13;6214978;23;20000;-70
2022/04/30 10:44:08;;;;;;;0.10;0.10;;;;;;;28.67;17.74;100354.69;6216258;23;20004;-70
2022/04/30 10:46:38;;;;;;;0.10;0.10;;;;;;;29.16;17.44;100342.03;6216077;23;20004;-71
2022/04/30 10:49:06;;;;;;;0.10;0.10;;;;;;;29.15;17.82;100348.25;6217304;23;20008;-70
2022/04/30 10:51:43;;;;;;;0.10;0.10;;;;;;;28.28;19.78;100344.31;6216146;23;20008;-70
2022/04/30 10:54:18;;;;;;;0.10;0.10;;;;;;;28.10;20.80;100342.31;6217388;23;20004;-70
2022/04/30 10:56:45;;;;;;;0.10;0.10;;;;;;;27.33;23.38;100342.50;6191524;23;20016;-70
2022/04/30 10:59:22;;;;;;;0.10;0.10;;;;;;;26.78;21.92;100339.50;6191269;23;20075;-71
2022/04/30 11:01:51;;;;;;;0.10;0.10;;;;;;;27.24;21.81;100339.63;6216026;23;20039;-70
2022/04/30 11:04:18;;;;;;;0.10;0.10;;;;;;;27.73;21.39;100338.72;6216585;23;20020;-71
2022/04/30 11:06:50;;;;;;;0.10;0.10;;;;;;;28.07;21.08;100334.66;6215919;23;20425;-71
2022/04/30 11:09:15;;;;;;;0.10;0.10;;;;;;;27.68;21.60;100329.47;6215902;23;20005;-70
2022/04/30 11:11:51;;;;;;;0.10;0.10;;;;;;;27.46;21.39;100337.41;6216674;23;20076;-70
2022/04/30 11:14:22;;;;;;;0.10;0.10;;;;;;;27.28;21.41;100335.34;6216234;23;20100;-70
2022/04/30 11:16:51;;;;;;;0.10;0.10;;;;;;;27.13;20.82;100326.59;6216073;23;20504;-71
2022/04/30 11:19:24;;;;;;;0.10;0.10;;;;;;;27.17;22.01;100322.81;6215902;23;20429;-71
2022/04/30 11:21:54;;;;;;;0.10;0.10;;;;;;;26.55;22.47;100324.53;6217181;23;20036;-70
2022/04/30 11:24:29;;;;;;;0.10;0.10;;;;;;;26.40;22.79;100329.19;6215667;23;20012;-71
2022/04/30 11:27:04;;;;;;;0.10;0.10;;;;;;;26.08;22.23;100328.38;6216344;23;20027;-68
2022/04/30 11:29:35;;;;;;;0.10;0.10;;;;;;;26.51;22.53;100318.16;6215434;23;20040;-71
2022/04/30 11:32:05;;;;;;;0.10;0.10;;;;;;;26.89;22.40;100326.34;6216432;23;20020;-71
2022/04/30 11:34:36;;;;;;;0.10;0.10;;;;;;;26.81;23.16;100318.59;6211752;23;20326;-71
2022/04/30 11:37:05;;;;;;;0.17;0.17;;;;;;;26.86;23.44;100315.13;6215689;23;20005;-71
2022/04/30 11:39:30;;;;;;;0.10;0.10;;;;;;;26.73;23.05;100323.78;6215686;23;20009;-71
2022/04/30 11:41:57;;;;;;;0.10;0.10;;;;;;;26.57;22.60;100321.97;6215714;23;20008;-68
2022/04/30 11:44:27;;;;;;;0.10;0.10;;;;;;;26.07;23.06;100329.66;6217752;23;20015;-70
2022/04/30 11:46:54;;;;;;;0.10;0.10;;;;;;;25.86;24.28;100313.38;6216138;23;20008;-70
2022/04/30 11:49:27;;;;;;;0.10;0.10;;;;;;;25.89;24.28;100323.84;6217019;23;20027;-69
2022/04/30 11:51:58;;;;;;;0.10;0.10;;;;;;;25.53;25.13;100319.44;6217158;23;20008;-70
2022/04/30 11:54:28;;;;;;;0.17;0.17;;;;;;;25.89;25.03;100317.34;6215256;23;20012;-70
2022/04/30 11:56:54;;;;;;;0.10;0.10;;;;;;;26.18;23.33;100320.69;6215309;23;20007;-70
2022/04/30 11:59:40;;;;;;;0.10;0.10;;;;;;;26.59;23.34;100316.63;6215423;23;20012;-70
2022/04/30 12:02:08;;;;;;;0.10;0.10;;;;;;;26.12;23.43;100314.78;6216237;23;20019;-71
2022/04/30 12:04:36;;;;;;;0.10;0.10;;;;;;;26.31;22.93;100320.56;6216900;23;20076;-70
2022/04/30 12:07:09;;;;;;;0.10;0.10;;;;;;;26.28;23.48;100316.63;6216462;23;20005;-69